createdAt,value
2023-03-13T00:01:04.410Z,23.98
2023-03-13T00:05:04.549Z,23.99
2023-03-13T00:09:04.666Z,23.99
2023-03-13T00:13:04.786Z,23.95
2023-03-13T00:17:05.017Z,23.98
2023-03-13T00:21:05.027Z,23.98
2023-03-13T00:25:05.153Z,23.96
2023-03-13T00:29:05.291Z,23.95
2023-03-13T00:33:05.438Z,23.95
2023-03-13T00:37:05.523Z,23.96
2023-03-13T00:41:05.685Z,23.96
2023-03-13T00:45:05.852Z,23.95
2023-03-13T00:49:05.950Z,23.95
2023-03-13T00:53:06.073Z,23.94
2023-03-13T00:57:06.240Z,23.94
2023-03-13T01:01:06.387Z,23.94
2023-03-13T01:05:06.546Z,23.95
2023-03-13T01:09:06.647Z,23.95
2023-03-13T01:13:06.832Z,23.95
2023-03-13T01:17:06.959Z,23.92
2023-03-13T01:21:07.100Z,23.94
2023-03-13T01:25:07.236Z,23.92
2023-03-13T01:29:07.410Z,23.94
2023-03-13T01:33:07.530Z,23.95
2023-03-13T01:37:07.678Z,23.92
2023-03-13T01:41:07.856Z,23.91
2023-03-13T01:45:08.004Z,23.92
2023-03-13T01:49:08.147Z,23.92
2023-03-13T01:53:08.320Z,23.91
2023-03-13T01:57:08.463Z,23.88
2023-03-13T02:01:08.626Z,23.91
2023-03-13T02:05:08.797Z,23.89
2023-03-13T02:09:08.924Z,23.91
2023-03-13T02:13:09.076Z,23.88
2023-03-13T02:17:09.238Z,23.91
2023-03-13T02:21:09.397Z,23.91
2023-03-13T02:25:09.540Z,23.86
2023-03-13T02:29:09.694Z,23.91
2023-03-13T02:33:09.858Z,23.91
2023-03-13T02:37:10.054Z,23.91
2023-03-13T02:41:10.196Z,23.89
2023-03-13T02:45:10.394Z,23.86
2023-03-13T02:49:10.524Z,23.88
2023-03-13T02:53:10.696Z,23.86
2023-03-13T02:57:10.886Z,23.89
2023-03-13T03:01:11.057Z,23.86
2023-03-13T03:05:11.180Z,23.88
2023-03-13T03:09:11.385Z,23.88
2023-03-13T03:13:11.541Z,23.86
2023-03-13T03:17:11.704Z,23.88
2023-03-13T03:21:11.870Z,23.85
2023-03-13T03:25:12.028Z,23.86
2023-03-13T03:29:12.204Z,23.85
2023-03-13T03:33:12.402Z,23.85
2023-03-13T03:37:12.558Z,23.84
2023-03-13T03:41:12.740Z,23.85
2023-03-13T03:45:12.849Z,23.86
2023-03-13T03:49:13.046Z,23.85
2023-03-13T03:53:13.217Z,23.84
2023-03-13T03:57:13.388Z,23.85
2023-03-13T04:01:13.611Z,23.82
2023-03-13T04:05:13.789Z,23.85
2023-03-13T04:09:13.911Z,23.82
2023-03-13T04:13:14.152Z,23.82
2023-03-13T04:17:14.265Z,23.82
2023-03-13T04:21:14.440Z,23.82
2023-03-13T04:25:14.570Z,23.79
2023-03-13T04:29:14.738Z,23.82
2023-03-13T04:33:14.926Z,23.82
2023-03-13T04:37:15.120Z,23.82
2023-03-13T04:41:15.262Z,23.82
2023-03-13T04:45:15.449Z,23.82
2023-03-13T04:49:15.619Z,23.81
2023-03-13T04:53:15.801Z,23.81
2023-03-13T04:57:15.978Z,23.82
2023-03-13T05:01:16.241Z,23.81
2023-03-13T05:05:16.465Z,23.81
2023-03-13T05:09:16.598Z,23.81
2023-03-13T05:13:16.775Z,23.79
2023-03-13T05:17:17.031Z,23.82
2023-03-13T05:21:17.217Z,23.81
2023-03-13T05:25:17.385Z,23.79
2023-03-13T05:29:17.575Z,23.76
2023-03-13T05:33:17.701Z,23.78
2023-03-13T05:37:17.871Z,23.76
2023-03-13T05:41:18.028Z,23.79
2023-03-13T05:45:18.159Z,23.79
2023-03-13T05:49:18.369Z,23.78
2023-03-13T05:53:18.398Z,23.78
2023-03-13T05:57:18.495Z,23.78
2023-03-13T06:01:18.646Z,23.78
2023-03-13T06:05:18.819Z,23.78
2023-03-13T06:09:18.941Z,23.78
2023-03-13T06:13:20.408Z,23.79
2023-03-13T06:17:19.223Z,23.78
2023-03-13T06:21:19.379Z,23.81
2023-03-13T06:25:19.514Z,23.79
2023-03-13T06:29:19.650Z,23.78
2023-03-13T06:33:19.870Z,23.81
2023-03-13T06:37:20.017Z,23.79
2023-03-13T06:41:20.499Z,23.78
2023-03-13T06:45:20.504Z,23.86
2023-03-13T06:49:20.390Z,23.98
2023-03-13T06:53:20.513Z,24.11
2023-03-13T06:57:21.036Z,24.17
2023-03-13T07:01:21.117Z,24.33
2023-03-13T07:05:20.644Z,24.44
2023-03-13T07:09:21.005Z,24.53
2023-03-13T07:13:20.838Z,24.64
2023-03-13T07:17:21.040Z,24.74
2023-03-13T07:21:20.792Z,24.83
2023-03-13T07:25:20.720Z,24.91
2023-03-13T07:29:20.995Z,24.97
2023-03-13T07:33:20.657Z,25.04
2023-03-13T07:37:20.601Z,25.12
2023-03-13T07:41:20.585Z,25.17
2023-03-13T07:45:21.003Z,25.22
2023-03-13T07:49:20.512Z,25.22
2023-03-13T07:53:20.563Z,25.22
2023-03-13T07:57:20.426Z,25.17
2023-03-13T08:01:20.529Z,25.14
2023-03-13T08:05:20.367Z,25.10
2023-03-13T08:09:20.561Z,25.10
2023-03-13T08:13:20.475Z,25.11
2023-03-13T08:17:20.251Z,25.11
2023-03-13T08:21:20.234Z,25.12
2023-03-13T08:25:20.561Z,25.15
2023-03-13T08:29:20.145Z,25.18
2023-03-13T08:33:20.136Z,25.17
2023-03-13T08:37:20.177Z,25.22
2023-03-13T08:41:20.537Z,25.23
2023-03-13T08:45:20.554Z,25.25
2023-03-13T08:49:20.580Z,25.29
2023-03-13T08:53:20.239Z,25.33
2023-03-13T08:57:20.570Z,25.35
2023-03-13T09:01:20.248Z,25.35
2023-03-13T09:05:20.221Z,25.38
2023-03-13T09:09:20.234Z,25.41
2023-03-13T09:13:20.197Z,25.41
2023-03-13T09:17:20.165Z,25.45
2023-03-13T09:21:20.579Z,25.43
2023-03-13T09:25:20.208Z,25.43
2023-03-13T09:29:20.599Z,25.46
2023-03-13T09:33:20.500Z,25.46
2023-03-13T09:37:21.079Z,25.31
2023-03-13T09:41:20.768Z,25.07
2023-03-13T09:45:21.093Z,24.88
2023-03-13T09:49:21.087Z,24.70
2023-03-13T09:53:21.576Z,24.54
2023-03-13T09:57:21.595Z,24.59
2023-03-13T10:01:21.241Z,24.71
2023-03-13T10:05:21.231Z,24.88
2023-03-13T10:09:21.602Z,24.97
2023-03-13T10:13:21.150Z,25.05
2023-03-13T10:17:21.160Z,25.12
2023-03-13T10:21:21.136Z,25.26
2023-03-13T10:25:21.093Z,25.33
2023-03-13T10:29:21.018Z,25.39
2023-03-13T10:33:21.082Z,25.46
2023-03-13T10:37:20.931Z,25.50
2023-03-13T10:41:21.125Z,25.53
2023-03-13T10:45:22.256Z,25.52
2023-03-13T10:49:21.125Z,25.46
2023-03-13T10:53:20.824Z,25.32
2023-03-13T10:57:20.772Z,25.25
2023-03-13T11:01:21.124Z,25.15
2023-03-13T11:05:20.648Z,25.10
2023-03-13T11:09:21.131Z,25.07
2023-03-13T11:13:35.579Z,25.05
2023-03-13T11:17:21.643Z,25.01
2023-03-13T11:21:20.538Z,24.95
2023-03-13T11:25:20.619Z,24.95
2023-03-13T11:29:20.536Z,24.94
2023-03-13T11:33:20.630Z,24.93
2023-03-13T11:37:21.135Z,24.91
2023-03-13T11:41:21.241Z,24.95
2023-03-13T11:45:21.197Z,25.01
2023-03-13T11:49:21.078Z,25.11
2023-03-13T11:53:21.201Z,25.15
2023-03-13T11:57:21.180Z,25.21
2023-03-13T12:01:21.231Z,25.29
2023-03-13T12:05:21.178Z,25.36
2023-03-13T12:09:21.107Z,25.42
2023-03-13T12:13:21.235Z,25.46
2023-03-13T12:17:21.669Z,25.49
2023-03-13T12:21:21.171Z,25.50
2023-03-13T12:25:21.146Z,25.52
2023-03-13T12:29:21.166Z,25.53
2023-03-13T12:33:23.930Z,25.52
2023-03-13T12:37:21.190Z,25.48
2023-03-13T12:41:21.154Z,25.43
2023-03-13T12:45:20.963Z,25.38
2023-03-13T12:49:20.912Z,25.32
2023-03-13T12:53:21.136Z,25.28
2023-03-13T12:57:21.179Z,25.23
2023-03-13T13:01:20.861Z,25.25
2023-03-13T13:05:20.789Z,25.25
2023-03-13T13:09:21.192Z,25.28
2023-03-13T13:13:20.721Z,25.32
2023-03-13T13:17:20.676Z,25.32
2023-03-13T13:21:20.619Z,25.28
2023-03-13T13:25:20.698Z,25.26
2023-03-13T13:29:20.519Z,25.28
2023-03-13T13:33:20.788Z,25.23
2023-03-13T13:37:20.455Z,25.22
2023-03-13T13:41:20.439Z,25.21
2023-03-13T13:45:20.443Z,25.22
2023-03-13T13:49:20.351Z,25.21
2023-03-13T13:53:20.328Z,25.21
2023-03-13T13:57:20.297Z,25.19
2023-03-13T14:01:20.293Z,25.17
2023-03-13T14:05:20.253Z,25.11
2023-03-13T14:09:20.174Z,25.10
2023-03-13T14:13:20.182Z,25.14
2023-03-13T14:17:20.132Z,25.14
2023-03-13T14:21:20.060Z,25.18
2023-03-13T14:25:20.013Z,25.15
2023-03-13T14:29:19.994Z,25.17
2023-03-13T14:33:19.964Z,25.11
2023-03-13T14:37:19.933Z,25.11
2023-03-13T14:41:20.236Z,25.05
2023-03-13T14:45:19.851Z,25.02
2023-03-13T14:49:19.895Z,25.01
2023-03-13T14:53:19.840Z,25.01
2023-03-13T14:57:19.916Z,25.04
2023-03-13T15:01:20.015Z,25.07
2023-03-13T15:05:20.035Z,25.02
2023-03-13T15:09:20.284Z,24.98
2023-03-13T15:13:20.827Z,24.95
2023-03-13T15:17:20.442Z,25.01
2023-03-13T15:21:20.550Z,25.01
2023-03-13T15:25:20.639Z,25.04
2023-03-13T15:29:20.674Z,25.08
2023-03-13T15:33:20.727Z,25.07
2023-03-13T15:37:20.761Z,25.11
2023-03-13T15:41:20.931Z,25.14
2023-03-13T15:45:20.892Z,25.12
2023-03-13T15:49:21.023Z,25.10
2023-03-13T15:53:21.131Z,25.07
2023-03-13T15:57:21.239Z,25.10
2023-03-13T16:01:21.426Z,25.11
2023-03-13T16:05:21.501Z,25.10
2023-03-13T16:09:21.593Z,25.11
2023-03-13T16:13:21.753Z,25.11
2023-03-13T16:17:21.881Z,25.10
2023-03-13T16:21:22.004Z,25.10
2023-03-13T16:25:22.098Z,25.08
2023-03-13T16:29:22.292Z,25.10
2023-03-13T16:33:22.422Z,25.07
2023-03-13T16:37:22.550Z,25.07
2023-03-13T16:41:22.666Z,25.05
2023-03-13T16:45:22.866Z,25.05
2023-03-13T16:49:22.974Z,25.05
2023-03-13T16:53:23.095Z,25.04
2023-03-13T16:57:23.301Z,25.05
2023-03-13T17:01:23.859Z,25.04
2023-03-13T17:05:23.595Z,25.01
2023-03-13T17:09:23.799Z,25.02
2023-03-13T17:13:23.932Z,25.02
2023-03-13T17:17:24.113Z,25.04
2023-03-13T17:21:24.232Z,25.04
2023-03-13T17:25:24.401Z,25.02
2023-03-13T17:29:24.588Z,25.01
2023-03-13T17:33:24.722Z,25.04
2023-03-13T17:37:24.884Z,24.99
2023-03-13T17:41:25.052Z,25.01
2023-03-13T17:45:25.189Z,24.99
2023-03-13T17:49:25.338Z,24.99
2023-03-13T17:53:25.507Z,25.01
2023-03-13T17:57:25.690Z,24.98
2023-03-13T18:01:25.947Z,24.97
2023-03-13T18:05:26.077Z,24.97
2023-03-13T18:09:26.238Z,24.95
2023-03-13T18:13:26.402Z,24.95
2023-03-13T18:17:26.618Z,24.95
2023-03-13T18:21:26.778Z,24.97
2023-03-13T18:25:26.944Z,24.95
2023-03-13T18:29:27.200Z,24.94
2023-03-13T18:33:27.345Z,24.93
2023-03-13T18:37:27.552Z,24.94
2023-03-13T18:41:27.681Z,24.91
2023-03-13T18:45:27.919Z,24.94
2023-03-13T18:49:28.062Z,24.93
2023-03-13T18:53:28.246Z,24.93
2023-03-13T18:57:28.434Z,24.90
2023-03-13T19:01:28.696Z,24.93
2023-03-13T19:05:28.889Z,24.91
2023-03-13T19:09:43.127Z,24.88
2023-03-13T19:13:29.997Z,24.90
2023-03-13T19:17:28.961Z,24.90
2023-03-13T19:21:28.899Z,24.87
2023-03-13T19:25:29.118Z,24.90
2023-03-13T19:29:29.297Z,24.88
2023-03-13T19:33:29.505Z,24.87
2023-03-13T19:37:29.675Z,24.90
2023-03-13T19:41:29.876Z,24.87
2023-03-13T19:45:30.044Z,24.87
2023-03-13T19:49:30.269Z,24.87
2023-03-13T19:53:30.463Z,24.84
2023-03-13T19:57:30.865Z,24.84
2023-03-13T20:01:30.931Z,24.85
2023-03-13T20:05:31.118Z,24.84
2023-03-13T20:09:31.332Z,24.81
2023-03-13T20:13:31.547Z,24.83
2023-03-13T20:17:31.773Z,24.84
2023-03-13T20:21:31.973Z,24.84
2023-03-13T20:25:31.940Z,24.84
2023-03-13T20:29:31.914Z,24.83
2023-03-13T20:33:31.864Z,24.83
2023-03-13T20:37:31.835Z,24.84
2023-03-13T20:41:31.805Z,24.80
2023-03-13T20:45:31.736Z,24.81
2023-03-13T20:49:31.717Z,24.78
2023-03-13T20:53:31.693Z,24.80
2023-03-13T20:57:31.633Z,24.83
2023-03-13T21:01:32.508Z,24.77
2023-03-13T21:05:31.663Z,24.80
2023-03-13T21:09:31.651Z,24.78
2023-03-13T21:13:31.620Z,24.78
2023-03-13T21:17:31.565Z,24.80
2023-03-13T21:21:31.511Z,24.77
2023-03-13T21:25:31.510Z,24.77
2023-03-13T21:29:31.475Z,24.74
2023-03-13T21:33:31.431Z,24.74
2023-03-13T21:37:31.378Z,24.74
2023-03-13T21:41:31.555Z,24.75
2023-03-13T21:45:31.506Z,24.71
2023-03-13T21:49:31.462Z,24.77
2023-03-13T21:53:31.439Z,24.74
2023-03-13T21:57:31.395Z,24.71
2023-03-13T22:01:31.375Z,24.70
2023-03-13T22:05:31.350Z,24.70
2023-03-13T22:09:31.299Z,24.70
2023-03-13T22:13:31.280Z,24.70
2023-03-13T22:17:31.252Z,24.71
2023-03-13T22:21:31.289Z,24.67
2023-03-13T22:25:31.253Z,24.68
2023-03-13T22:29:31.424Z,24.68
2023-03-13T22:33:31.677Z,24.67
2023-03-13T22:37:31.832Z,24.67
2023-03-13T22:41:32.028Z,24.67
2023-03-13T22:45:32.186Z,24.64
2023-03-13T22:49:32.407Z,24.64
2023-03-13T22:53:32.580Z,24.64
2023-03-13T22:57:32.785Z,24.66
2023-03-13T23:01:33.021Z,24.63
2023-03-13T23:05:33.123Z,24.63
2023-03-13T23:09:33.250Z,24.66
2023-03-13T23:13:33.392Z,24.62
2023-03-13T23:17:33.541Z,24.64
2023-03-13T23:21:33.691Z,24.64
2023-03-13T23:25:33.838Z,24.63
2023-03-13T23:29:33.919Z,24.63
2023-03-13T23:33:34.014Z,24.59
2023-03-13T23:37:34.138Z,24.59
2023-03-13T23:41:34.249Z,24.62
2023-03-13T23:45:34.313Z,24.60
2023-03-13T23:49:34.357Z,24.57
2023-03-13T23:53:34.409Z,24.59
2023-03-13T23:57:34.510Z,24.57
